sensor_id;sensor_type;location;lat;lon;timestamp;P1;durP1;ratioP1;P2;durP2;ratioP2
14007;SDS011;61651;45.508;12.232;2023-08-07T00:00:38;2.55;;;1.23;;
14007;SDS011;61651;45.508;12.232;2023-08-07T00:03:40;1.65;;;1.27;;
14007;SDS011;61651;45.508;12.232;2023-08-07T00:06:42;1.27;;;1.17;;
14007;SDS011;61651;45.508;12.232;2023-08-07T00:09:44;1.05;;;1.02;;
14007;SDS011;61651;45.508;12.232;2023-08-07T00:12:48;1.38;;;1.00;;
14007;SDS011;61651;45.508;12.232;2023-08-07T00:15:50;1.50;;;1.30;;
14007;SDS011;61651;45.508;12.232;2023-08-07T00:18:53;1.20;;;1.10;;
14007;SDS011;61651;45.508;12.232;2023-08-07T00:21:56;1.38;;;1.27;;
14007;SDS011;61651;45.508;12.232;2023-08-07T00:24:58;2.28;;;1.98;;
14007;SDS011;61651;45.508;12.232;2023-08-07T00:28:01;1.00;;;1.00;;
14007;SDS011;61651;45.508;12.232;2023-08-07T00:31:03;1.17;;;1.08;;
14007;SDS011;61651;45.508;12.232;2023-08-07T00:34:05;1.67;;;1.20;;
14007;SDS011;61651;45.508;12.232;2023-08-07T00:37:07;1.15;;;1.13;;
14007;SDS011;61651;45.508;12.232;2023-08-07T00:40:10;1.52;;;1.30;;
14007;SDS011;61651;45.508;12.232;2023-08-07T00:43:13;1.58;;;1.25;;
14007;SDS011;61651;45.508;12.232;2023-08-07T00:46:15;1.48;;;1.38;;
14007;SDS011;61651;45.508;12.232;2023-08-07T00:49:18;1.30;;;1.20;;
14007;SDS011;61651;45.508;12.232;2023-08-07T00:52:21;1.52;;;1.35;;
14007;SDS011;61651;45.508;12.232;2023-08-07T00:55:23;2.28;;;1.00;;
14007;SDS011;61651;45.508;12.232;2023-08-07T00:58:27;1.40;;;1.30;;
14007;SDS011;61651;45.508;12.232;2023-08-07T01:01:30;1.50;;;1.40;;
14007;SDS011;61651;45.508;12.232;2023-08-07T01:04:32;1.67;;;1.23;;
14007;SDS011;61651;45.508;12.232;2023-08-07T01:07:34;2.45;;;1.30;;
14007;SDS011;61651;45.508;12.232;2023-08-07T01:10:39;1.20;;;1.10;;
14007;SDS011;61651;45.508;12.232;2023-08-07T01:13:54;1.98;;;1.20;;
14007;SDS011;61651;45.508;12.232;2023-08-07T01:17:02;2.53;;;1.10;;
14007;SDS011;61651;45.508;12.232;2023-08-07T01:20:08;1.35;;;1.10;;
14007;SDS011;61651;45.508;12.232;2023-08-07T01:23:12;1.30;;;1.13;;
14007;SDS011;61651;45.508;12.232;2023-08-07T01:26:14;1.80;;;1.33;;
14007;SDS011;61651;45.508;12.232;2023-08-07T01:29:19;0.95;;;0.93;;
14007;SDS011;61651;45.508;12.232;2023-08-07T01:32:29;3.22;;;1.23;;
14007;SDS011;61651;45.508;12.232;2023-08-07T01:35:40;1.27;;;1.17;;
14007;SDS011;61651;45.508;12.232;2023-08-07T01:38:45;1.25;;;1.08;;
14007;SDS011;61651;45.508;12.232;2023-08-07T01:41:49;1.80;;;1.38;;
14007;SDS011;61651;45.508;12.232;2023-08-07T01:44:52;1.85;;;1.33;;
14007;SDS011;61651;45.508;12.232;2023-08-07T01:47:54;1.10;;;1.05;;
14007;SDS011;61651;45.508;12.232;2023-08-07T01:50:56;1.42;;;1.33;;
14007;SDS011;61651;45.508;12.232;2023-08-07T01:54:00;1.20;;;1.10;;
14007;SDS011;61651;45.508;12.232;2023-08-07T01:57:02;1.30;;;1.20;;
14007;SDS011;61651;45.508;12.232;2023-08-07T02:00:04;1.00;;;1.00;;
14007;SDS011;61651;45.508;12.232;2023-08-07T02:03:08;1.48;;;1.38;;
14007;SDS011;61651;45.508;12.232;2023-08-07T02:06:10;2.33;;;1.30;;
14007;SDS011;61651;45.508;12.232;2023-08-07T02:09:13;1.50;;;1.40;;
14007;SDS011;61651;45.508;12.232;2023-08-07T02:12:15;2.20;;;1.30;;
14007;SDS011;61651;45.508;12.232;2023-08-07T02:15:17;2.00;;;1.33;;
14007;SDS011;61651;45.508;12.232;2023-08-07T02:18:19;1.23;;;1.15;;
14007;SDS011;61651;45.508;12.232;2023-08-07T02:21:21;1.88;;;1.58;;
14007;SDS011;61651;45.508;12.232;2023-08-07T02:24:25;1.15;;;1.10;;
14007;SDS011;61651;45.508;12.232;2023-08-07T02:27:27;1.60;;;1.40;;
14007;SDS011;61651;45.508;12.232;2023-08-07T02:30:30;1.40;;;1.30;;
14007;SDS011;61651;45.508;12.232;2023-08-07T02:33:32;1.30;;;1.20;;
14007;SDS011;61651;45.508;12.232;2023-08-07T02:36:34;1.48;;;1.30;;
14007;SDS011;61651;45.508;12.232;2023-08-07T02:39:38;1.60;;;1.48;;
14007;SDS011;61651;45.508;12.232;2023-08-07T02:42:40;2.13;;;1.20;;
14007;SDS011;61651;45.508;12.232;2023-08-07T02:45:42;1.40;;;1.30;;
14007;SDS011;61651;45.508;12.232;2023-08-07T02:48:44;1.27;;;1.17;;
14007;SDS011;61651;45.508;12.232;2023-08-07T02:51:46;1.95;;;1.25;;
14007;SDS011;61651;45.508;12.232;2023-08-07T02:54:49;1.60;;;1.50;;
14007;SDS011;61651;45.508;12.232;2023-08-07T02:57:51;1.33;;;1.23;;
14007;SDS011;61651;45.508;12.232;2023-08-07T03:00:53;1.60;;;1.20;;
14007;SDS011;61651;45.508;12.232;2023-08-07T03:03:56;1.33;;;1.23;;
14007;SDS011;61651;45.508;12.232;2023-08-07T03:06:58;1.40;;;1.30;;
14007;SDS011;61651;45.508;12.232;2023-08-07T03:10:02;2.65;;;1.50;;
14007;SDS011;61651;45.508;12.232;2023-08-07T03:13:05;1.30;;;1.20;;
14007;SDS011;61651;45.508;12.232;2023-08-07T03:16:07;1.50;;;1.40;;
14007;SDS011;61651;45.508;12.232;2023-08-07T03:19:08;1.20;;;1.13;;
14007;SDS011;61651;45.508;12.232;2023-08-07T03:22:10;2.28;;;1.60;;
14007;SDS011;61651;45.508;12.232;2023-08-07T03:25:14;1.52;;;1.27;;
14007;SDS011;61651;45.508;12.232;2023-08-07T03:28:16;1.80;;;1.40;;
14007;SDS011;61651;45.508;12.232;2023-08-07T03:31:18;1.73;;;1.20;;
14007;SDS011;61651;45.508;12.232;2023-08-07T03:34:20;3.58;;;1.55;;
14007;SDS011;61651;45.508;12.232;2023-08-07T03:37:22;3.90;;;1.35;;
14007;SDS011;61651;45.508;12.232;2023-08-07T03:40:25;1.70;;;1.60;;
14007;SDS011;61651;45.508;12.232;2023-08-07T03:43:27;1.42;;;1.33;;
14007;SDS011;61651;45.508;12.232;2023-08-07T03:46:29;1.92;;;1.70;;
14007;SDS011;61651;45.508;12.232;2023-08-07T03:49:32;2.80;;;1.38;;
14007;SDS011;61651;45.508;12.232;2023-08-07T03:52:34;3.03;;;1.67;;
14007;SDS011;61651;45.508;12.232;2023-08-07T03:55:37;1.92;;;1.50;;
14007;SDS011;61651;45.508;12.232;2023-08-07T03:58:39;1.60;;;1.50;;
14007;SDS011;61651;45.508;12.232;2023-08-07T04:01:41;2.40;;;1.30;;
14007;SDS011;61651;45.508;12.232;2023-08-07T04:04:43;2.95;;;1.50;;
14007;SDS011;61651;45.508;12.232;2023-08-07T04:07:45;3.22;;;1.30;;
14007;SDS011;61651;45.508;12.232;2023-08-07T04:10:58;1.40;;;1.30;;
14007;SDS011;61651;45.508;12.232;2023-08-07T04:14:01;1.83;;;1.73;;
14007;SDS011;61651;45.508;12.232;2023-08-07T04:17:04;2.03;;;1.63;;
14007;SDS011;61651;45.508;12.232;2023-08-07T04:20:06;1.98;;;1.77;;
14007;SDS011;61651;45.508;12.232;2023-08-07T04:23:10;1.83;;;1.60;;
14007;SDS011;61651;45.508;12.232;2023-08-07T04:26:13;1.60;;;1.50;;
14007;SDS011;61651;45.508;12.232;2023-08-07T04:29:15;1.92;;;1.60;;
14007;SDS011;61651;45.508;12.232;2023-08-07T04:32:17;2.45;;;1.73;;
14007;SDS011;61651;45.508;12.232;2023-08-07T04:35:19;1.60;;;1.50;;
14007;SDS011;61651;45.508;12.232;2023-08-07T04:38:21;3.20;;;1.65;;
14007;SDS011;61651;45.508;12.232;2023-08-07T04:41:24;1.40;;;1.30;;
14007;SDS011;61651;45.508;12.232;2023-08-07T04:44:26;2.22;;;1.70;;
14007;SDS011;61651;45.508;12.232;2023-08-07T04:47:28;1.98;;;1.70;;
14007;SDS011;61651;45.508;12.232;2023-08-07T04:50:30;1.60;;;1.50;;
14007;SDS011;61651;45.508;12.232;2023-08-07T04:53:32;1.75;;;1.63;;
14007;SDS011;61651;45.508;12.232;2023-08-07T04:56:36;2.50;;;1.75;;
14007;SDS011;61651;45.508;12.232;2023-08-07T04:59:38;3.78;;;1.95;;
14007;SDS011;61651;45.508;12.232;2023-08-07T05:02:40;1.83;;;1.65;;
14007;SDS011;61651;45.508;12.232;2023-08-07T05:05:42;1.60;;;1.45;;
14007;SDS011;61651;45.508;12.232;2023-08-07T05:08:44;2.42;;;1.65;;
14007;SDS011;61651;45.508;12.232;2023-08-07T05:11:48;2.53;;;1.90;;
14007;SDS011;61651;45.508;12.232;2023-08-07T05:14:50;2.45;;;2.15;;
14007;SDS011;61651;45.508;12.232;2023-08-07T05:17:52;3.03;;;1.80;;
14007;SDS011;61651;45.508;12.232;2023-08-07T05:20:54;3.55;;;1.85;;
14007;SDS011;61651;45.508;12.232;2023-08-07T05:23:56;1.98;;;1.77;;
14007;SDS011;61651;45.508;12.232;2023-08-07T05:26:59;2.35;;;2.05;;
14007;SDS011;61651;45.508;12.232;2023-08-07T05:30:01;3.08;;;2.00;;
14007;SDS011;61651;45.508;12.232;2023-08-07T05:33:04;1.90;;;1.77;;
14007;SDS011;61651;45.508;12.232;2023-08-07T05:36:06;2.70;;;1.67;;
14007;SDS011;61651;45.508;12.232;2023-08-07T05:39:08;2.05;;;1.70;;
14007;SDS011;61651;45.508;12.232;2023-08-07T05:42:12;2.05;;;1.85;;
14007;SDS011;61651;45.508;12.232;2023-08-07T05:45:14;1.77;;;1.67;;
14007;SDS011;61651;45.508;12.232;2023-08-07T05:48:16;1.90;;;1.50;;
14007;SDS011;61651;45.508;12.232;2023-08-07T05:51:18;2.35;;;1.50;;
14007;SDS011;61651;45.508;12.232;2023-08-07T05:54:20;1.88;;;1.67;;
14007;SDS011;61651;45.508;12.232;2023-08-07T05:57:24;3.10;;;2.00;;
14007;SDS011;61651;45.508;12.232;2023-08-07T06:00:26;2.45;;;1.63;;
14007;SDS011;61651;45.508;12.232;2023-08-07T06:03:28;3.55;;;1.80;;
14007;SDS011;61651;45.508;12.232;2023-08-07T06:06:30;2.50;;;1.58;;
14007;SDS011;61651;45.508;12.232;2023-08-07T06:09:35;2.55;;;1.67;;
14007;SDS011;61651;45.508;12.232;2023-08-07T06:12:38;1.98;;;1.70;;
14007;SDS011;61651;45.508;12.232;2023-08-07T06:15:40;1.60;;;1.50;;
14007;SDS011;61651;45.508;12.232;2023-08-07T06:18:42;1.60;;;1.50;;
14007;SDS011;61651;45.508;12.232;2023-08-07T06:21:44;1.40;;;1.30;;
14007;SDS011;61651;45.508;12.232;2023-08-07T06:24:46;1.92;;;1.52;;
14007;SDS011;61651;45.508;12.232;2023-08-07T06:27:50;2.03;;;1.70;;
14007;SDS011;61651;45.508;12.232;2023-08-07T06:30:52;1.40;;;1.30;;
14007;SDS011;61651;45.508;12.232;2023-08-07T06:33:54;1.00;;;1.00;;
14007;SDS011;61651;45.508;12.232;2023-08-07T06:36:56;2.05;;;1.60;;
14007;SDS011;61651;45.508;12.232;2023-08-07T06:39:58;1.92;;;1.50;;
14007;SDS011;61651;45.508;12.232;2023-08-07T06:43:02;1.55;;;1.20;;
14007;SDS011;61651;45.508;12.232;2023-08-07T06:46:04;2.30;;;1.20;;
14007;SDS011;61651;45.508;12.232;2023-08-07T06:49:06;1.38;;;1.27;;
14007;SDS011;61651;45.508;12.232;2023-08-07T06:52:08;1.20;;;1.10;;
14007;SDS011;61651;45.508;12.232;2023-08-07T06:55:10;1.42;;;1.33;;
14007;SDS011;61651;45.508;12.232;2023-08-07T06:58:14;1.02;;;1.00;;
14007;SDS011;61651;45.508;12.232;2023-08-07T07:01:16;1.67;;;1.30;;
14007;SDS011;61651;45.508;12.232;2023-08-07T07:04:18;4.40;;;1.60;;
14007;SDS011;61651;45.508;12.232;2023-08-07T07:07:20;1.38;;;1.20;;
14007;SDS011;61651;45.508;12.232;2023-08-07T07:10:22;1.40;;;1.30;;
14007;SDS011;61651;45.508;12.232;2023-08-07T07:13:25;2.20;;;1.15;;
14007;SDS011;61651;45.508;12.232;2023-08-07T07:16:27;2.28;;;1.30;;
14007;SDS011;61651;45.508;12.232;2023-08-07T07:19:29;1.40;;;1.30;;
14007;SDS011;61651;45.508;12.232;2023-08-07T07:22:31;2.70;;;1.23;;
14007;SDS011;61651;45.508;12.232;2023-08-07T07:25:33;2.83;;;1.33;;
14007;SDS011;61651;45.508;12.232;2023-08-07T07:28:36;2.00;;;1.40;;
14007;SDS011;61651;45.508;12.232;2023-08-07T07:31:38;1.70;;;1.50;;
14007;SDS011;61651;45.508;12.232;2023-08-07T07:34:40;1.13;;;1.10;;
14007;SDS011;61651;45.508;12.232;2023-08-07T07:37:42;1.65;;;1.50;;
14007;SDS011;61651;45.508;12.232;2023-08-07T07:40:44;1.20;;;1.10;;
14007;SDS011;61651;45.508;12.232;2023-08-07T07:43:48;1.33;;;1.23;;
14007;SDS011;61651;45.508;12.232;2023-08-07T07:46:50;2.35;;;1.20;;
14007;SDS011;61651;45.508;12.232;2023-08-07T07:50:03;3.13;;;1.23;;
14007;SDS011;61651;45.508;12.232;2023-08-07T07:53:07;2.72;;;1.50;;
14007;SDS011;61651;45.508;12.232;2023-08-07T07:56:09;2.05;;;1.25;;
14007;SDS011;61651;45.508;12.232;2023-08-07T07:59:13;1.95;;;1.30;;
14007;SDS011;61651;45.508;12.232;2023-08-07T08:02:15;1.73;;;1.38;;
14007;SDS011;61651;45.508;12.232;2023-08-07T08:05:17;1.20;;;1.10;;
14007;SDS011;61651;45.508;12.232;2023-08-07T08:08:19;1.25;;;1.15;;
14007;SDS011;61651;45.508;12.232;2023-08-07T08:11:21;1.20;;;1.10;;
14007;SDS011;61651;45.508;12.232;2023-08-07T08:14:25;3.22;;;1.23;;
14007;SDS011;61651;45.508;12.232;2023-08-07T08:17:27;2.42;;;1.15;;
14007;SDS011;61651;45.508;12.232;2023-08-07T08:20:29;1.33;;;1.15;;
14007;SDS011;61651;45.508;12.232;2023-08-07T08:23:33;2.13;;;1.05;;
14007;SDS011;61651;45.508;12.232;2023-08-07T08:26:35;1.58;;;1.13;;
14007;SDS011;61651;45.508;12.232;2023-08-07T08:29:38;2.05;;;1.10;;
14007;SDS011;61651;45.508;12.232;2023-08-07T08:32:40;1.38;;;1.27;;
14007;SDS011;61651;45.508;12.232;2023-08-07T08:35:42;4.28;;;1.50;;
14007;SDS011;61651;45.508;12.232;2023-08-07T08:38:44;1.73;;;1.30;;
14007;SDS011;61651;45.508;12.232;2023-08-07T08:41:49;1.58;;;1.13;;
14007;SDS011;61651;45.508;12.232;2023-08-07T08:44:53;1.55;;;1.17;;
14007;SDS011;61651;45.508;12.232;2023-08-07T08:47:58;1.42;;;1.30;;
14007;SDS011;61651;45.508;12.232;2023-08-07T08:51:03;2.65;;;1.17;;
14007;SDS011;61651;45.508;12.232;2023-08-07T08:54:06;1.25;;;0.98;;
14007;SDS011;61651;45.508;12.232;2023-08-07T08:57:09;1.30;;;1.20;;
14007;SDS011;61651;45.508;12.232;2023-08-07T09:00:14;3.33;;;1.20;;
14007;SDS011;61651;45.508;12.232;2023-08-07T09:03:20;3.35;;;1.45;;
14007;SDS011;61651;45.508;12.232;2023-08-07T09:06:22;2.65;;;1.20;;
14007;SDS011;61651;45.508;12.232;2023-08-07T09:09:25;1.92;;;1.10;;
14007;SDS011;61651;45.508;12.232;2023-08-07T09:12:29;1.20;;;1.10;;
14007;SDS011;61651;45.508;12.232;2023-08-07T09:15:34;1.73;;;1.20;;
14007;SDS011;61651;45.508;12.232;2023-08-07T09:18:39;1.58;;;1.42;;
14007;SDS011;61651;45.508;12.232;2023-08-07T09:21:42;1.55;;;1.45;;
14007;SDS011;61651;45.508;12.232;2023-08-07T09:24:44;1.20;;;1.10;;
14007;SDS011;61651;45.508;12.232;2023-08-07T09:27:46;1.30;;;1.20;;
14007;SDS011;61651;45.508;12.232;2023-08-07T09:30:52;1.17;;;1.10;;
14007;SDS011;61651;45.508;12.232;2023-08-07T09:33:54;1.30;;;1.20;;
14007;SDS011;61651;45.508;12.232;2023-08-07T09:36:56;1.30;;;1.20;;
14007;SDS011;61651;45.508;12.232;2023-08-07T09:39:59;2.60;;;1.30;;
14007;SDS011;61651;45.508;12.232;2023-08-07T09:43:02;1.83;;;1.73;;
14007;SDS011;61651;45.508;12.232;2023-08-07T09:46:06;1.38;;;1.27;;
14007;SDS011;61651;45.508;12.232;2023-08-07T09:49:08;1.67;;;1.58;;
14007;SDS011;61651;45.508;12.232;2023-08-07T09:52:11;1.30;;;1.17;;
14007;SDS011;61651;45.508;12.232;2023-08-07T09:55:15;1.00;;;1.00;;
14007;SDS011;61651;45.508;12.232;2023-08-07T09:58:17;1.52;;;1.20;;
14007;SDS011;61651;45.508;12.232;2023-08-07T10:01:21;1.00;;;1.00;;
14007;SDS011;61651;45.508;12.232;2023-08-07T10:04:23;1.25;;;1.15;;
14007;SDS011;61651;45.508;12.232;2023-08-07T10:07:25;1.10;;;1.00;;
14007;SDS011;61651;45.508;12.232;2023-08-07T10:10:28;1.10;;;1.10;;
14007;SDS011;61651;45.508;12.232;2023-08-07T10:13:30;2.35;;;1.27;;
14007;SDS011;61651;45.508;12.232;2023-08-07T10:16:34;1.42;;;1.20;;
14007;SDS011;61651;45.508;12.232;2023-08-07T10:19:39;1.20;;;1.10;;
14007;SDS011;61651;45.508;12.232;2023-08-07T10:22:41;0.90;;;0.90;;
14007;SDS011;61651;45.508;12.232;2023-08-07T10:25:45;1.75;;;1.20;;
14007;SDS011;61651;45.508;12.232;2023-08-07T10:28:48;1.50;;;1.10;;
14007;SDS011;61651;45.508;12.232;2023-08-07T10:31:55;1.30;;;1.00;;
14007;SDS011;61651;45.508;12.232;2023-08-07T10:35:00;1.35;;;1.15;;
14007;SDS011;61651;45.508;12.232;2023-08-07T10:38:05;1.20;;;1.10;;
14007;SDS011;61651;45.508;12.232;2023-08-07T10:41:09;0.95;;;0.95;;
14007;SDS011;61651;45.508;12.232;2023-08-07T10:44:16;2.13;;;1.13;;
14007;SDS011;61651;45.508;12.232;2023-08-07T10:47:31;2.22;;;1.30;;
14007;SDS011;61651;45.508;12.232;2023-08-07T10:50:34;0.95;;;0.95;;
14007;SDS011;61651;45.508;12.232;2023-08-07T10:53:39;2.05;;;0.98;;
14007;SDS011;61651;45.508;12.232;2023-08-07T10:56:44;1.10;;;1.00;;
14007;SDS011;61651;45.508;12.232;2023-08-07T11:00:01;0.98;;;0.98;;
14007;SDS011;61651;45.508;12.232;2023-08-07T11:03:09;1.73;;;0.98;;
14007;SDS011;61651;45.508;12.232;2023-08-07T11:06:11;1.92;;;1.00;;
14007;SDS011;61651;45.508;12.232;2023-08-07T11:09:13;1.20;;;1.10;;
14007;SDS011;61651;45.508;12.232;2023-08-07T11:12:15;0.90;;;0.90;;
14007;SDS011;61651;45.508;12.232;2023-08-07T11:15:18;1.10;;;1.10;;
14007;SDS011;61651;45.508;12.232;2023-08-07T11:18:21;1.25;;;1.08;;
14007;SDS011;61651;45.508;12.232;2023-08-07T11:21:24;1.13;;;1.00;;
14007;SDS011;61651;45.508;12.232;2023-08-07T11:24:27;1.77;;;1.25;;
14007;SDS011;61651;45.508;12.232;2023-08-07T11:27:29;1.17;;;1.17;;
14007;SDS011;61651;45.508;12.232;2023-08-07T11:30:31;1.45;;;1.35;;
14007;SDS011;61651;45.508;12.232;2023-08-07T11:33:36;2.17;;;2.08;;
14007;SDS011;61651;45.508;12.232;2023-08-07T11:36:41;1.55;;;1.20;;
14007;SDS011;61651;45.508;12.232;2023-08-07T11:39:44;1.30;;;1.20;;
14007;SDS011;61651;45.508;12.232;2023-08-07T11:42:46;2.67;;;1.60;;
14007;SDS011;61651;45.508;12.232;2023-08-07T11:45:48;1.15;;;1.10;;
14007;SDS011;61651;45.508;12.232;2023-08-07T11:48:52;1.52;;;1.10;;
14007;SDS011;61651;45.508;12.232;2023-08-07T11:51:55;2.83;;;2.28;;
14007;SDS011;61651;45.508;12.232;2023-08-07T11:54:57;1.30;;;1.17;;
14007;SDS011;61651;45.508;12.232;2023-08-07T11:57:59;1.77;;;1.48;;
14007;SDS011;61651;45.508;12.232;2023-08-07T12:01:04;0.88;;;0.88;;
14007;SDS011;61651;45.508;12.232;2023-08-07T12:04:11;1.00;;;1.00;;
14007;SDS011;61651;45.508;12.232;2023-08-07T12:07:16;0.90;;;0.90;;
14007;SDS011;61651;45.508;12.232;2023-08-07T12:10:19;1.08;;;0.98;;
14007;SDS011;61651;45.508;12.232;2023-08-07T12:13:24;1.40;;;1.30;;
14007;SDS011;61651;45.508;12.232;2023-08-07T12:16:31;1.10;;;1.00;;
14007;SDS011;61651;45.508;12.232;2023-08-07T12:19:39;1.95;;;0.95;;
14007;SDS011;61651;45.508;12.232;2023-08-07T12:22:43;1.67;;;0.95;;
14007;SDS011;61651;45.508;12.232;2023-08-07T12:25:45;1.05;;;1.05;;
14007;SDS011;61651;45.508;12.232;2023-08-07T12:28:47;2.33;;;1.02;;
14007;SDS011;61651;45.508;12.232;2023-08-07T12:31:49;0.95;;;0.85;;
14007;SDS011;61651;45.508;12.232;2023-08-07T12:34:53;1.00;;;0.95;;
14007;SDS011;61651;45.508;12.232;2023-08-07T12:37:55;1.15;;;0.90;;
14007;SDS011;61651;45.508;12.232;2023-08-07T12:40:57;1.00;;;1.00;;
14007;SDS011;61651;45.508;12.232;2023-08-07T12:43:59;1.80;;;1.00;;
14007;SDS011;61651;45.508;12.232;2023-08-07T12:47:01;1.20;;;1.00;;
14007;SDS011;61651;45.508;12.232;2023-08-07T12:50:05;0.90;;;0.90;;
14007;SDS011;61651;45.508;12.232;2023-08-07T12:53:07;1.00;;;0.90;;
14007;SDS011;61651;45.508;12.232;2023-08-07T12:56:10;0.80;;;0.80;;
14007;SDS011;61651;45.508;12.232;2023-08-07T12:59:12;0.80;;;0.80;;
14007;SDS011;61651;45.508;12.232;2023-08-07T13:02:14;0.93;;;0.93;;
14007;SDS011;61651;45.508;12.232;2023-08-07T13:05:17;1.00;;;0.90;;
14007;SDS011;61651;45.508;12.232;2023-08-07T13:08:21;0.95;;;0.93;;
14007;SDS011;61651;45.508;12.232;2023-08-07T13:11:23;0.95;;;0.95;;
14007;SDS011;61651;45.508;12.232;2023-08-07T13:14:25;0.80;;;0.80;;
14007;SDS011;61651;45.508;12.232;2023-08-07T13:17:27;1.45;;;1.08;;
14007;SDS011;61651;45.508;12.232;2023-08-07T13:20:30;1.08;;;0.98;;
14007;SDS011;61651;45.508;12.232;2023-08-07T13:23:34;0.90;;;0.90;;
14007;SDS011;61651;45.508;12.232;2023-08-07T13:26:36;1.00;;;1.00;;
14007;SDS011;61651;45.508;12.232;2023-08-07T13:29:38;0.90;;;0.90;;
14007;SDS011;61651;45.508;12.232;2023-08-07T13:32:40;0.93;;;0.93;;
14007;SDS011;61651;45.508;12.232;2023-08-07T13:35:44;1.20;;;1.10;;
14007;SDS011;61651;45.508;12.232;2023-08-07T13:38:46;0.80;;;0.80;;
14007;SDS011;61651;45.508;12.232;2023-08-07T13:41:48;1.20;;;1.10;;
14007;SDS011;61651;45.508;12.232;2023-08-07T13:44:50;0.90;;;0.90;;
14007;SDS011;61651;45.508;12.232;2023-08-07T13:47:52;1.45;;;1.10;;
14007;SDS011;61651;45.508;12.232;2023-08-07T13:50:55;1.30;;;1.15;;
14007;SDS011;61651;45.508;12.232;2023-08-07T13:53:57;0.90;;;0.90;;
14007;SDS011;61651;45.508;12.232;2023-08-07T13:56:59;1.33;;;1.20;;
14007;SDS011;61651;45.508;12.232;2023-08-07T14:00:01;1.98;;;1.88;;
14007;SDS011;61651;45.508;12.232;2023-08-07T14:03:04;0.90;;;0.90;;
14007;SDS011;61651;45.508;12.232;2023-08-07T14:06:07;1.65;;;1.08;;
14007;SDS011;61651;45.508;12.232;2023-08-07T14:09:09;0.93;;;0.93;;
14007;SDS011;61651;45.508;12.232;2023-08-07T14:12:14;0.95;;;0.95;;
14007;SDS011;61651;45.508;12.232;2023-08-07T14:15:16;1.92;;;1.40;;
14007;SDS011;61651;45.508;12.232;2023-08-07T14:18:18;1.10;;;1.10;;
14007;SDS011;61651;45.508;12.232;2023-08-07T14:21:21;1.02;;;1.00;;
14007;SDS011;61651;45.508;12.232;2023-08-07T14:24:23;1.70;;;1.50;;
14007;SDS011;61651;45.508;12.232;2023-08-07T15:11:47;0.98;;;0.98;;
14007;SDS011;61651;45.508;12.232;2023-08-07T15:14:49;1.73;;;1.63;;
14007;SDS011;61651;45.508;12.232;2023-08-07T15:17:51;1.80;;;1.00;;
14007;SDS011;61651;45.508;12.232;2023-08-07T15:20:53;1.80;;;1.20;;
14007;SDS011;61651;45.508;12.232;2023-08-07T15:23:57;1.67;;;1.42;;
14007;SDS011;61651;45.508;12.232;2023-08-07T15:27:00;1.70;;;1.60;;
14007;SDS011;61651;45.508;12.232;2023-08-07T15:30:03;1.98;;;1.77;;
14007;SDS011;61651;45.508;12.232;2023-08-07T15:33:05;2.13;;;1.52;;
14007;SDS011;61651;45.508;12.232;2023-08-07T15:36:08;1.90;;;1.60;;
14007;SDS011;61651;45.508;12.232;2023-08-07T15:39:10;2.88;;;1.92;;
14007;SDS011;61651;45.508;12.232;2023-08-07T15:42:14;2.13;;;2.03;;
14007;SDS011;61651;45.508;12.232;2023-08-07T15:45:16;1.95;;;1.75;;
14007;SDS011;61651;45.508;12.232;2023-08-07T15:48:18;1.77;;;1.63;;
14007;SDS011;61651;45.508;12.232;2023-08-07T15:51:20;1.75;;;1.42;;
14007;SDS011;61651;45.508;12.232;2023-08-07T15:54:22;1.70;;;1.60;;
14007;SDS011;61651;45.508;12.232;2023-08-07T15:57:26;2.40;;;2.20;;
14007;SDS011;61651;45.508;12.232;2023-08-07T16:00:28;2.28;;;2.05;;
14007;SDS011;61651;45.508;12.232;2023-08-07T16:03:34;2.95;;;1.55;;
14007;SDS011;61651;45.508;12.232;2023-08-07T16:06:37;1.75;;;1.65;;
14007;SDS011;61651;45.508;12.232;2023-08-07T16:09:39;10.13;;;3.70;;
14007;SDS011;61651;45.508;12.232;2023-08-07T16:12:43;1.77;;;1.67;;
14007;SDS011;61651;45.508;12.232;2023-08-07T16:15:45;3.00;;;2.17;;
14007;SDS011;61651;45.508;12.232;2023-08-07T16:18:47;2.30;;;2.10;;
14007;SDS011;61651;45.508;12.232;2023-08-07T16:21:49;2.38;;;2.20;;
14007;SDS011;61651;45.508;12.232;2023-08-07T16:24:51;2.00;;;1.85;;
14007;SDS011;61651;45.508;12.232;2023-08-07T16:27:55;2.20;;;2.00;;
14007;SDS011;61651;45.508;12.232;2023-08-07T16:30:57;1.60;;;1.50;;
14007;SDS011;61651;45.508;12.232;2023-08-07T16:33:59;1.85;;;1.75;;
14007;SDS011;61651;45.508;12.232;2023-08-07T16:37:01;1.85;;;1.70;;
14007;SDS011;61651;45.508;12.232;2023-08-07T16:40:03;1.60;;;1.50;;
14007;SDS011;61651;45.508;12.232;2023-08-07T16:43:08;1.73;;;1.60;;
14007;SDS011;61651;45.508;12.232;2023-08-07T16:46:10;1.60;;;1.50;;
14007;SDS011;61651;45.508;12.232;2023-08-07T16:49:12;2.83;;;2.10;;
14007;SDS011;61651;45.508;12.232;2023-08-07T16:52:14;1.88;;;1.65;;
14007;SDS011;61651;45.508;12.232;2023-08-07T16:55:16;2.17;;;1.45;;
14007;SDS011;61651;45.508;12.232;2023-08-07T16:58:19;1.60;;;1.50;;
14007;SDS011;61651;45.508;12.232;2023-08-07T17:01:21;1.63;;;1.52;;
14007;SDS011;61651;45.508;12.232;2023-08-07T17:04:23;1.45;;;1.35;;
14007;SDS011;61651;45.508;12.232;2023-08-07T17:07:29;2.00;;;1.50;;
14007;SDS011;61651;45.508;12.232;2023-08-07T17:10:31;1.50;;;1.40;;
14007;SDS011;61651;45.508;12.232;2023-08-07T17:13:35;1.85;;;1.67;;
14007;SDS011;61651;45.508;12.232;2023-08-07T17:16:37;1.42;;;1.33;;
14007;SDS011;61651;45.508;12.232;2023-08-07T17:19:39;3.63;;;1.40;;
14007;SDS011;61651;45.508;12.232;2023-08-07T17:22:41;2.22;;;1.40;;
14007;SDS011;61651;45.508;12.232;2023-08-07T17:25:43;1.42;;;1.20;;
14007;SDS011;61651;45.508;12.232;2023-08-07T17:28:46;1.30;;;1.20;;
14007;SDS011;61651;45.508;12.232;2023-08-07T17:31:48;1.48;;;1.30;;
14007;SDS011;61651;45.508;12.232;2023-08-07T17:34:51;1.40;;;1.30;;
14007;SDS011;61651;45.508;12.232;2023-08-07T17:37:55;1.73;;;1.50;;
14007;SDS011;61651;45.508;12.232;2023-08-07T17:40:57;1.75;;;1.65;;
14007;SDS011;61651;45.508;12.232;2023-08-07T17:44:01;2.30;;;2.10;;
14007;SDS011;61651;45.508;12.232;2023-08-07T17:47:05;2.00;;;1.83;;
14007;SDS011;61651;45.508;12.232;2023-08-07T17:50:07;1.90;;;1.80;;
14007;SDS011;61651;45.508;12.232;2023-08-07T17:53:10;3.17;;;1.77;;
14007;SDS011;61651;45.508;12.232;2023-08-07T17:56:12;2.33;;;1.58;;
14007;SDS011;61651;45.508;12.232;2023-08-07T17:59:15;3.30;;;3.00;;
14007;SDS011;61651;45.508;12.232;2023-08-07T18:02:17;6.70;;;5.53;;
14007;SDS011;61651;45.508;12.232;2023-08-07T18:05:19;4.28;;;3.88;;
14007;SDS011;61651;45.508;12.232;2023-08-07T18:08:21;3.95;;;3.33;;
14007;SDS011;61651;45.508;12.232;2023-08-07T18:11:23;3.33;;;2.95;;
14007;SDS011;61651;45.508;12.232;2023-08-07T18:14:26;2.85;;;2.65;;
14007;SDS011;61651;45.508;12.232;2023-08-07T18:17:28;3.33;;;2.70;;
14007;SDS011;61651;45.508;12.232;2023-08-07T18:20:32;3.45;;;2.53;;
14007;SDS011;61651;45.508;12.232;2023-08-07T18:23:34;3.60;;;2.70;;
14007;SDS011;61651;45.508;12.232;2023-08-07T18:26:36;4.97;;;4.20;;
14007;SDS011;61651;45.508;12.232;2023-08-07T18:29:40;4.15;;;3.03;;
14007;SDS011;61651;45.508;12.232;2023-08-07T18:32:42;2.97;;;2.67;;
14007;SDS011;61651;45.508;12.232;2023-08-07T18:35:44;3.67;;;2.20;;
14007;SDS011;61651;45.508;12.232;2023-08-07T18:38:46;4.47;;;2.28;;
14007;SDS011;61651;45.508;12.232;2023-08-07T18:41:49;2.20;;;2.00;;
14007;SDS011;61651;45.508;12.232;2023-08-07T18:44:53;4.32;;;2.53;;
14007;SDS011;61651;45.508;12.232;2023-08-07T18:47:55;2.47;;;2.28;;